Time;durP1;ratioP1;P1;durP2;ratioP2;P2;SDS_P1;SDS_P2;PMS_P1;PMS_P2;Temp;Humidity;BMP_temperature;BMP_pressure;BME280_temperature;BME280_humidity;BME280_pressure;Samples;Min_cycle;Max_cycle;Signal;HPM_P1;HPM_P2
2023/12/03 06:55:45;;;;;;;32.33;14.50;;;-5.60;99.90;;;;;;7616758;19;21042;-70
2023/12/03 06:58:18;;;;;;;35.03;15.20;;;-5.80;99.90;;;;;;7611464;19;20014;-70
2023/12/03 07:00:50;;;;;;;42.30;18.80;;;-5.70;99.90;;;;;;7628521;19;20018;-71
2023/12/03 07:03:22;;;;;;;39.63;17.40;;;-5.60;99.90;;;;;;7620997;19;20014;-70
2023/12/03 07:05:55;;;;;;;36.03;18.50;;;-5.40;99.90;;;;;;7621641;19;20010;-70
2023/12/03 07:08:27;;;;;;;42.57;19.53;;;-5.30;99.90;;;;;;7616195;19;20018;-70
2023/12/03 07:11:00;;;;;;;32.88;15.50;;;-5.20;99.90;;;;;;7623881;19;20018;-68
2023/12/03 07:13:32;;;;;;;36.40;17.35;;;-5.00;99.90;;;;;;7611992;19;20015;-70
2023/12/03 07:16:04;;;;;;;32.15;15.90;;;-4.80;99.90;;;;;;7624920;19;20014;-68
2023/12/03 07:18:41;;;;;;;38.25;17.45;;;-4.80;99.90;;;;;;7629465;19;20022;-71
2023/12/03 07:21:14;;;;;;;39.97;18.55;;;-4.70;99.90;;;;;;7637777;19;20548;-71
2023/12/03 07:23:46;;;;;;;40.03;16.97;;;-4.60;99.90;;;;;;7610853;19;20014;-68
2023/12/03 07:26:18;;;;;;;35.45;16.33;;;-4.50;99.90;;;;;;7631389;19;20022;-71
2023/12/03 07:28:50;;;;;;;35.67;17.17;;;-4.40;99.90;;;;;;7609991;19;20015;-69
2023/12/03 07:31:23;;;;;;;36.97;17.27;;;-4.40;99.90;;;;;;7623556;19;20051;-68
2023/12/03 07:33:55;;;;;;;35.47;16.67;;;-4.30;99.90;;;;;;7593541;19;20018;-68
2023/12/03 07:36:27;;;;;;;35.72;17.65;;;-4.30;99.90;;;;;;7612146;19;20018;-70
2023/12/03 07:38:59;;;;;;;40.15;17.48;;;-4.20;99.90;;;;;;7614970;19;20018;-69
2023/12/03 07:41:31;;;;;;;36.33;16.70;;;-4.10;99.90;;;;;;7604157;19;20010;-68
2023/12/03 07:44:05;;;;;;;33.00;15.60;;;-4.10;99.90;;;;;;7603904;19;20014;-68
2023/12/03 07:46:37;;;;;;;35.45;16.27;;;-4.00;99.90;;;;;;7599879;19;20018;-68
2023/12/03 07:49:09;;;;;;;33.90;16.70;;;-4.00;99.90;;;;;;7618099;19;20042;-68
2023/12/03 07:51:42;;;;;;;33.63;17.65;;;-4.00;99.90;;;;;;7607933;19;20015;-69
2023/12/03 07:54:14;;;;;;;35.33;16.42;;;-4.00;99.90;;;;;;7611807;19;20024;-69
2023/12/03 07:56:47;;;;;;;33.10;15.90;;;-4.00;99.90;;;;;;7612786;19;20366;-69
2023/12/03 07:59:20;;;;;;;28.63;15.02;;;-4.00;99.90;;;;;;7613426;19;20014;-68
2023/12/03 08:01:53;;;;;;;35.47;15.07;;;-3.90;99.90;;;;;;7607472;19;20187;-68
2023/12/03 08:04:27;;;;;;;34.10;15.18;;;-4.00;99.90;;;;;;7614007;19;20089;-69
2023/12/03 08:06:59;;;;;;;29.23;14.65;;;-3.90;99.90;;;;;;7589785;19;20022;-68
2023/12/03 08:09:32;;;;;;;31.38;16.17;;;-3.90;99.90;;;;;;7583607;19;20376;-68
2023/12/03 08:12:05;;;;;;;35.50;17.60;;;-3.90;99.90;;;;;;7594344;19;20058;-68
2023/12/03 08:14:37;;;;;;;33.38;15.05;;;-3.90;99.90;;;;;;7565505;19;22233;-68
2023/12/03 08:17:12;;;;;;;34.72;16.98;;;-3.90;99.90;;;;;;7560661;19;20022;-68
2023/12/03 08:19:48;;;;;;;31.52;15.52;;;-3.80;99.90;;;;;;7580265;19;20015;-68
2023/12/03 08:22:21;;;;;;;35.42;15.35;;;-3.80;99.90;;;;;;7591436;19;20526;-69
2023/12/03 08:24:53;;;;;;;30.08;15.50;;;-3.80;99.90;;;;;;7593530;19;20014;-68
2023/12/03 08:27:25;;;;;;;34.42;16.15;;;-3.70;99.90;;;;;;7593743;19;20018;-69
2023/12/03 08:29:57;;;;;;;29.48;15.10;;;-3.70;99.90;;;;;;7595403;19;20041;-68
2023/12/03 08:32:30;;;;;;;32.63;16.60;;;-3.60;99.90;;;;;;7581956;19;20988;-68
2023/12/03 08:35:03;;;;;;;31.42;16.63;;;-3.60;99.90;;;;;;7582773;19;20011;-68
2023/12/03 08:37:40;;;;;;;32.25;15.93;;;-3.50;99.90;;;;;;7581639;19;20447;-70
2023/12/03 08:40:15;;;;;;;31.33;14.35;;;-3.40;99.90;;;;;;7587192;19;20014;-69
2023/12/03 08:42:48;;;;;;;28.67;13.05;;;-3.40;99.90;;;;;;7576931;19;20014;-69
2023/12/03 08:45:21;;;;;;;30.75;15.00;;;-3.40;99.90;;;;;;7572731;19;20081;-69
2023/12/03 08:47:54;;;;;;;27.50;14.13;;;-3.40;99.90;;;;;;7534124;19;20029;-68
2023/12/03 08:50:31;;;;;;;29.42;15.18;;;-3.40;99.90;;;;;;7488547;19;20022;-69
2023/12/03 08:53:04;;;;;;;32.15;14.70;;;-3.30;99.90;;;;;;7502238;19;20037;-68
2023/12/03 15:40:59;;;;;;;40.03;18.25;;;-2.80;99.90;;;;;;7598949;19;21011;-71
2023/12/03 15:43:31;;;;;;;36.33;17.25;;;-3.30;99.90;;;;;;7609655;19;20695;-68
2023/12/03 15:46:14;;;;;;;38.30;17.77;;;-3.30;99.90;;;;;;7628812;19;20089;-69
2023/12/03 15:48:46;;;;;;;40.63;18.97;;;-3.30;99.90;;;;;;7605532;19;20019;-68
2023/12/03 15:51:20;;;;;;;42.67;19.23;;;-3.10;99.90;;;;;;7619928;19;20287;-68
2023/12/03 15:53:53;;;;;;;35.60;17.10;;;;;;;;;;7615469;19;20010;-71
2023/12/03 15:56:26;;;;;;;42.97;20.52;;;;;;;;;;7617082;19;20010;-68
2023/12/03 15:58:58;;;;;;;33.78;15.07;;;;;;;;;;7623948;19;20021;-68
2023/12/03 16:01:31;;;;;;;47.85;22.10;;;;;;;;;;7622432;19;20093;-68
2023/12/03 16:04:04;;;;;;;43.05;19.00;;;;;;;;;;7610179;19;20026;-71
2023/12/03 16:06:37;;;;;;;38.17;18.30;;;;;;;;;;7590360;19;22345;-68
2023/12/03 16:09:11;;;;;;;36.35;17.23;;;;;;;;;;7613547;19;20018;-68
2023/12/03 16:11:46;;;;;;;36.72;17.27;;;;;;;;;;7618312;19;20006;-71
2023/12/03 16:14:18;;;;;;;35.78;17.30;;;;;;;;;;7632855;19;20006;-69
2023/12/03 16:16:51;;;;;;;37.17;18.13;;;-3.20;99.90;;;;;;7623272;19;20025;-71
2023/12/03 16:19:25;;;;;;;37.80;17.55;;;-3.10;99.90;;;;;;7623359;19;20014;-70
2023/12/03 16:21:58;;;;;;;41.25;18.92;;;-3.10;99.90;;;;;;7635454;19;20029;-70
2023/12/03 16:24:31;;;;;;;38.05;19.20;;;-3.10;99.90;;;;;;7622545;19;20014;-69
2023/12/03 16:27:04;;;;;;;35.15;17.60;;;-3.20;99.90;;;;;;7622646;19;20021;-68
2023/12/03 16:29:36;;;;;;;39.88;19.48;;;-3.20;99.90;;;;;;7623711;19;20469;-69
2023/12/03 16:32:09;;;;;;;43.10;20.17;;;-3.30;99.90;;;;;;7626769;19;21080;-72
2023/12/03 16:34:44;;;;;;;44.05;21.17;;;-3.40;99.90;;;;;;7620396;19;20014;-70
2023/12/03 16:37:16;;;;;;;51.30;26.60;;;-3.40;99.90;;;;;;7616892;19;20039;-69
2023/12/03 16:39:48;;;;;;;65.57;34.33;;;-3.40;99.90;;;;;;7620816;19;20025;-69
2023/12/03 16:42:21;;;;;;;44.70;21.65;;;-3.20;99.90;;;;;;7622493;19;20015;-69
2023/12/03 16:44:53;;;;;;;84.57;34.00;;;-3.40;99.90;;;;;;7612264;19;20073;-69
2023/12/03 16:47:25;;;;;;;47.63;22.38;;;-3.40;99.90;;;;;;7613420;19;20492;-69
2023/12/03 16:49:59;;;;;;;58.75;29.05;;;-3.30;99.90;;;;;;7623032;19;20078;-68
2023/12/03 16:52:33;;;;;;;52.17;24.95;;;-3.30;99.90;;;;;;7584151;19;20014;-69
2023/12/03 16:55:07;;;;;;;56.63;26.65;;;-3.30;99.90;;;;;;7587714;19;20088;-71
2023/12/03 16:57:41;;;;;;;54.05;26.90;;;-3.20;99.90;;;;;;7578603;19;20600;-68
2023/12/03 17:00:14;;;;;;;60.60;27.42;;;-3.20;99.90;;;;;;7594162;19;20046;-68
2023/12/03 17:02:47;;;;;;;59.13;29.75;;;-3.20;99.90;;;;;;7583494;19;20021;-69
2023/12/03 17:05:19;;;;;;;68.30;33.93;;;-3.30;99.90;;;;;;7585598;19;20015;-69
2023/12/03 17:07:52;;;;;;;69.65;33.65;;;-3.30;99.90;;;;;;7597110;19;20025;-69
2023/12/03 17:10:24;;;;;;;61.67;32.20;;;-3.40;99.90;;;;;;7608486;19;20618;-70
2023/12/03 17:12:58;;;;;;;73.47;31.83;;;-3.50;99.90;;;;;;7597398;19;20019;-69
2023/12/03 17:15:32;;;;;;;70.35;34.30;;;-3.50;99.90;;;;;;7602358;19;20589;-70
2023/12/03 17:18:06;;;;;;;68.32;33.75;;;-3.50;99.90;;;;;;7603873;19;20020;-70
2023/12/03 17:20:38;;;;;;;89.80;32.78;;;-3.60;99.90;;;;;;7605029;19;20626;-69
2023/12/03 17:23:10;;;;;;;73.63;34.80;;;-3.60;99.90;;;;;;6053811;19;10000181;-69
2023/12/03 17:25:43;;;;;;;67.45;34.10;;;-3.70;99.90;;;;;;7597405;19;20015;-69
2023/12/03 17:28:17;;;;;;;65.53;31.42;;;-3.70;99.90;;;;;;7589866;19;20018;-71
2023/12/03 17:30:50;;;;;;;65.03;30.95;;;-3.80;99.90;;;;;;7585152;19;20031;-70
2023/12/03 17:33:22;;;;;;;70.45;29.63;;;-3.90;99.90;;;;;;7592507;19;20014;-70
2023/12/03 17:35:58;;;;;;;58.20;27.60;;;-3.90;99.90;;;;;;7590461;19;20057;-70
2023/12/03 17:38:30;;;;;;;71.30;33.47;;;-3.90;99.90;;;;;;7584213;19;21035;-70
2023/12/03 17:41:03;;;;;;;71.72;34.17;;;-3.90;99.90;;;;;;7586702;19;20019;-70
2023/12/03 17:43:36;;;;;;;83.32;39.55;;;-3.80;99.90;;;;;;7588683;19;20487;-70
2023/12/03 17:46:10;;;;;;;;;;;-3.90;99.90;;;;;;7594282;19;20037;-70
2023/12/03 17:48:42;;;;;;;83.90;38.23;;;-3.90;99.90;;;;;;7586346;19;19914;-70
2023/12/03 17:51:15;;;;;;;91.50;41.27;;;-3.90;99.90;;;;;;7597352;19;20017;-69
2023/12/03 17:53:47;;;;;;;85.22;40.42;;;-3.90;99.90;;;;;;7586679;19;20084;-69
2023/12/03 17:56:19;;;;;;;82.85;40.42;;;-3.90;99.90;;;;;;7592800;19;20014;-69
2023/12/03 17:58:52;;;;;;;88.17;39.67;;;-4.00;99.90;;;;;;7583536;19;20012;-70
2023/12/03 18:01:25;;;;;;;84.82;38.60;;;-4.00;99.90;;;;;;7591745;19;20018;-68
2023/12/03 18:03:58;;;;;;;93.18;41.22;;;-3.90;99.90;;;;;;7590021;19;20634;-69
2023/12/03 18:06:30;;;;;;;93.13;40.13;;;-3.90;99.90;;;;;;7591222;19;20014;-69
2023/12/03 18:09:07;;;;;;;88.88;41.10;;;-4.00;99.90;;;;;;7592539;19;20014;-68
2023/12/03 18:11:41;;;;;;;90.65;41.88;;;-4.10;99.90;;;;;;7593599;19;20041;-69
2023/12/03 18:14:16;;;;;;;86.20;40.28;;;-4.10;99.90;;;;;;7587886;19;20021;-69
2023/12/03 18:16:48;;;;;;;80.30;38.23;;;-4.10;99.90;;;;;;7593349;19;20041;-69
2023/12/03 18:19:20;;;;;;;82.90;39.83;;;-4.20;99.90;;;;;;7574112;19;20010;-68
2023/12/03 18:21:54;;;;;;;84.72;40.28;;;-4.20;99.90;;;;;;7584171;19;20309;-68
2023/12/03 18:24:27;;;;;;;87.32;40.28;;;-4.30;99.90;;;;;;7593679;19;20041;-69
2023/12/03 18:27:00;;;;;;;88.45;40.88;;;-4.30;99.90;;;;;;7586315;19;20018;-68
2023/12/03 18:29:33;;;;;;;83.40;39.60;;;-4.30;99.90;;;;;;7587765;19;20025;-68
2023/12/03 18:32:07;;;;;;;85.40;40.80;;;-4.30;99.90;;;;;;7587069;19;20014;-71
2023/12/03 18:34:41;;;;;;;89.80;41.05;;;-4.30;99.90;;;;;;7590652;19;20039;-69
2023/12/03 18:37:13;;;;;;;91.82;43.65;;;-4.30;99.90;;;;;;7579926;19;20086;-68
2023/12/03 18:39:45;;;;;;;93.03;44.00;;;-4.30;99.90;;;;;;7562416;19;20030;-69
2023/12/03 18:42:18;;;;;;;99.03;44.92;;;-4.40;99.90;;;;;;7581045;19;20088;-68
2023/12/03 18:44:50;;;;;;;105.67;51.10;;;-4.30;99.90;;;;;;7584402;19;20030;-68
2023/12/03 18:47:24;;;;;;;91.07;42.15;;;-4.30;99.90;;;;;;7574848;19;20015;-72
2023/12/03 18:50:04;;;;;;;81.90;36.47;;;-4.40;99.90;;;;;;7580790;19;20156;-69
2023/12/03 18:52:37;;;;;;;81.97;39.13;;;-4.40;99.90;;;;;;7593248;19;20526;-68
2023/12/03 18:55:12;;;;;;;76.18;34.25;;;-4.40;99.90;;;;;;7582777;19;20007;-68
2023/12/03 18:57:45;;;;;;;77.22;34.45;;;-4.50;99.90;;;;;;7579154;19;20018;-69
2023/12/03 19:00:18;;;;;;;74.75;34.35;;;-4.60;99.90;;;;;;7572216;19;20057;-68
2023/12/03 19:02:51;;;;;;;81.68;37.70;;;-4.70;99.90;;;;;;7572317;19;20010;-68
2023/12/03 19:05:24;;;;;;;84.10;40.00;;;-4.70;99.90;;;;;;7583768;19;20540;-70
2023/12/03 19:07:59;;;;;;;78.78;38.20;;;-4.60;99.90;;;;;;7577761;19;20018;-69
2023/12/03 19:10:37;;;;;;;89.00;40.30;;;-4.70;99.90;;;;;;7576227;19;21358;-70
2023/12/03 19:13:10;;;;;;;91.30;42.35;;;-4.70;99.90;;;;;;7583335;19;20018;-69
2023/12/03 19:15:49;;;;;;;87.97;40.53;;;-4.80;99.90;;;;;;7573712;19;20021;-69
2023/12/03 19:18:21;;;;;;;96.57;42.65;;;-4.80;99.90;;;;;;7562837;19;20601;-69
2023/12/03 19:20:54;;;;;;;95.30;42.47;;;-4.90;99.90;;;;;;7563161;19;20022;-69
2023/12/03 19:23:26;;;;;;;99.65;43.83;;;-4.90;99.90;;;;;;7567804;19;20018;-69
2023/12/03 19:25:59;;;;;;;105.50;45.00;;;-4.90;99.90;;;;;;7567067;19;20014;-72
2023/12/03 19:28:31;;;;;;;92.80;42.35;;;-4.90;99.90;;;;;;7548440;19;20021;-70
2023/12/03 19:31:04;;;;;;;82.30;37.05;;;-4.90;99.90;;;;;;7564572;19;20049;-70
2023/12/03 19:33:38;;;;;;;86.05;37.95;;;-5.10;99.90;;;;;;7562131;19;20048;-69
2023/12/03 19:36:11;;;;;;;86.25;38.75;;;-5.00;99.90;;;;;;7563789;19;20018;-69
2023/12/03 19:38:43;;;;;;;100.95;41.08;;;-4.90;99.90;;;;;;7559115;19;20026;-69
2023/12/03 19:41:15;;;;;;;91.43;40.77;;;-4.90;99.90;;;;;;7567269;19;20682;-70
2023/12/03 19:43:48;;;;;;;92.32;38.30;;;-5.00;99.90;;;;;;7568195;19;20057;-70
2023/12/03 19:46:20;;;;;;;87.93;38.55;;;-5.10;99.90;;;;;;7571418;19;20018;-69
2023/12/03 19:48:53;;;;;;;79.55;35.20;;;-5.20;99.90;;;;;;7570526;19;20047;-69
2023/12/03 19:51:25;;;;;;;73.97;33.27;;;-5.20;99.90;;;;;;7573136;19;20015;-69
2023/12/03 19:53:58;;;;;;;68.85;31.75;;;-5.30;99.90;;;;;;7522387;19;20034;-70
2023/12/03 19:56:31;;;;;;;61.78;28.92;;;-5.30;99.90;;;;;;7569570;19;20011;-70
2023/12/03 19:59:03;;;;;;;66.33;29.27;;;-5.30;99.90;;;;;;7548250;19;20138;-71
2023/12/03 20:01:35;;;;;;;65.75;29.67;;;-5.30;99.90;;;;;;7540007;19;20014;-70
2023/12/03 20:04:07;;;;;;;65.70;30.20;;;-5.30;99.90;;;;;;7562893;19;20547;-71
2023/12/03 20:06:40;;;;;;;87.87;39.93;;;-5.20;99.90;;;;;;7059803;19;10000032;-70
2023/12/03 20:09:14;;;;;;;80.05;35.67;;;-5.20;99.90;;;;;;7560910;19;20014;-70
2023/12/03 20:11:46;;;;;;;73.47;34.77;;;-5.20;99.90;;;;;;7535604;19;20022;-70
2023/12/03 20:14:18;;;;;;;83.32;39.17;;;-5.30;99.90;;;;;;7542880;19;20028;-71
2023/12/03 20:16:53;;;;;;;86.47;38.83;;;-5.30;99.90;;;;;;7552112;19;20015;-69
2023/12/03 20:19:26;;;;;;;88.88;38.50;;;-5.30;99.90;;;;;;7564947;19;20015;-70
2023/12/03 20:21:58;;;;;;;95.53;41.90;;;-5.20;99.90;;;;;;7550819;19;20011;-70
2023/12/03 20:24:32;;;;;;;75.47;33.75;;;-5.20;99.90;;;;;;7563469;19;20014;-71
2023/12/03 20:27:04;;;;;;;75.70;32.88;;;-5.30;99.90;;;;;;7556602;19;20672;-69
2023/12/03 20:29:36;;;;;;;74.87;32.57;;;-5.40;99.90;;;;;;7563149;19;20026;-69
2023/12/03 20:32:09;;;;;;;85.65;35.72;;;-5.40;99.90;;;;;;7567535;19;20025;-70
2023/12/03 20:34:42;;;;;;;;;;;-5.40;99.90;;;;;;7571915;19;20021;-69
2023/12/03 20:37:14;;;;;;;134.73;50.33;;;-5.40;99.90;;;;;;7563207;19;19933;-69
2023/12/03 20:39:47;;;;;;;80.80;34.78;;;-5.40;99.90;;;;;;7559053;19;20022;-69
2023/12/03 20:42:19;;;;;;;81.50;37.60;;;-5.50;99.90;;;;;;7554121;19;20018;-70
2023/12/03 20:44:52;;;;;;;66.05;30.58;;;-5.60;99.90;;;;;;7568455;19;20349;-69
2023/12/03 20:47:24;;;;;;;58.25;27.13;;;-5.70;99.90;;;;;;7544857;19;21016;-69
2023/12/03 20:49:58;;;;;;;63.40;28.63;;;-5.80;99.90;;;;;;7552397;19;21011;-70
